Time;durP1;ratioP1;P1;durP2;ratioP2;P2;SDS_P1;SDS_P2;PMS_P1;PMS_P2;Temp;Humidity;BMP_temperature;BMP_pressure;BME280_temperature;BME280_humidity;BME280_pressure;Samples;Min_cycle;Max_cycle;Signal;HPM_P1;HPM_P2
2019/08/17 00:02:58;;;;;;;2.39;1.85;;;;;;;22.39;55.98;100295.45;;;;-50
2019/08/17 00:05:21;;;;;;;2.54;1.91;;;;;;;22.38;55.95;100293.57;;;;-52
2019/08/17 00:08:15;;;;;;;2.27;1.90;;;;;;;22.37;55.99;100291.52;;;;-52
2019/08/17 00:11:15;;;;;;;2.32;1.91;;;;;;;22.37;55.95;100290.17;;;;-51
2019/08/17 00:14:15;;;;;;;4.04;1.85;;;;;;;22.36;55.94;100287.39;;;;-52
2019/08/17 00:17:15;;;;;;;2.65;1.81;;;;;;;22.36;55.93;100269.55;;;;-52
2019/08/17 00:20:15;;;;;;;2.15;1.82;;;;;;;22.35;55.95;100273.63;;;;-53
2019/08/17 00:23:15;;;;;;;2.37;1.94;;;;;;;22.35;55.94;100267.23;;;;-54
2019/08/17 00:26:15;;;;;;;2.66;2.14;;;;;;;22.36;55.91;100269.05;;;;-52
2019/08/17 00:29:15;;;;;;;2.00;1.80;;;;;;;22.36;55.95;100270.30;;;;-53
2019/08/17 00:32:15;;;;;;;3.21;1.83;;;;;;;22.35;55.92;100268.17;;;;-53
2019/08/17 00:35:15;;;;;;;2.26;1.77;;;;;;;22.35;55.95;100274.13;;;;-54
2019/08/17 00:38:15;;;;;;;2.15;1.86;;;;;;;22.34;55.94;100273.16;;;;-54
2019/08/17 00:41:15;;;;;;;2.53;1.90;;;;;;;22.33;55.93;100274.64;;;;-54
2019/08/17 00:44:15;;;;;;;2.16;1.77;;;;;;;22.34;55.93;100271.84;;;;-54
2019/08/17 00:47:15;;;;;;;2.95;1.79;;;;;;;22.34;55.96;100268.52;;;;-54
2019/08/17 00:50:15;;;;;;;2.08;1.73;;;;;;;22.34;55.96;100273.40;;;;-53
2019/08/17 00:53:15;;;;;;;2.11;1.71;;;;;;;22.33;55.95;100267.58;;;;-53
2019/08/17 00:56:15;;;;;;;2.37;1.62;;;;;;;22.32;55.95;100266.20;;;;-53
2019/08/17 00:59:15;;;;;;;2.39;1.72;;;;;;;22.32;55.98;100270.74;;;;-54
2019/08/17 01:02:15;;;;;;;2.11;1.81;;;;;;;22.33;55.97;100268.32;;;;-53
2019/08/17 01:05:15;;;;;;;2.27;1.90;;;;;;;22.32;55.98;100262.91;;;;-54
2019/08/17 01:08:15;;;;;;;1.71;1.61;;;;;;;22.31;56.00;100259.68;;;;-53
2019/08/17 01:11:15;;;;;;;1.91;1.70;;;;;;;22.30;56.01;100255.88;;;;-54
2019/08/17 01:14:15;;;;;;;2.00;1.77;;;;;;;22.30;55.97;100253.19;;;;-52
2019/08/17 01:17:15;;;;;;;2.25;1.65;;;;;;;22.31;55.96;100252.71;;;;-52
2019/08/17 01:20:15;;;;;;;2.26;1.95;;;;;;;22.30;55.99;100255.64;;;;-52
2019/08/17 01:23:15;;;;;;;1.99;1.70;;;;;;;22.31;55.95;100262.64;;;;-52
2019/08/17 01:26:15;;;;;;;2.23;1.76;;;;;;;22.31;55.94;100262.81;;;;-52
2019/08/17 01:29:15;;;;;;;2.52;1.82;;;;;;;22.30;55.97;100247.06;;;;-52
2019/08/17 01:32:15;;;;;;;1.87;1.69;;;;;;;22.30;55.94;100248.14;;;;-52
2019/08/17 01:35:15;;;;;;;2.85;1.84;;;;;;;22.30;55.91;100239.73;;;;-51
2019/08/17 01:38:15;;;;;;;1.91;1.71;;;;;;;22.29;55.99;100237.24;;;;-51
2019/08/17 01:41:15;;;;;;;2.36;1.72;;;;;;;22.28;55.96;100237.41;;;;-51
2019/08/17 01:44:15;;;;;;;1.95;1.73;;;;;;;22.30;55.96;100237.14;;;;-52
2019/08/17 01:47:15;;;;;;;1.92;1.60;;;;;;;22.29;56.00;100241.88;;;;-54
2019/08/17 01:50:15;;;;;;;2.10;1.67;;;;;;;22.27;55.99;100236.34;;;;-53
2019/08/17 01:53:15;;;;;;;1.71;1.61;;;;;;;22.27;55.96;100234.59;;;;-54
2019/08/17 01:56:15;;;;;;;1.82;1.63;;;;;;;22.27;55.95;100233.02;;;;-54
2019/08/17 01:59:15;;;;;;;1.97;1.69;;;;;;;22.27;56.00;100234.02;;;;-53
2019/08/17 02:02:15;;;;;;;2.79;1.69;;;;;;;22.27;55.96;100235.20;;;;-53
2019/08/17 02:05:15;;;;;;;2.03;1.70;;;;;;;22.27;56.00;100232.07;;;;-53
2019/08/17 02:08:15;;;;;;;2.11;1.67;;;;;;;22.26;56.02;100230.52;;;;-54
2019/08/17 02:11:15;;;;;;;2.55;1.73;;;;;;;22.26;55.94;100229.59;;;;-52
2019/08/17 02:14:15;;;;;;;2.43;1.89;;;;;;;22.26;55.98;100234.73;;;;-52
2019/08/17 02:17:15;;;;;;;2.43;1.70;;;;;;;22.25;55.99;100232.01;;;;-54
2019/08/17 02:20:15;;;;;;;1.94;1.73;;;;;;;22.25;55.92;100231.33;;;;-54
2019/08/17 02:23:15;;;;;;;2.09;1.71;;;;;;;22.25;55.93;100232.01;;;;-54
2019/08/17 02:26:15;;;;;;;1.95;1.71;;;;;;;22.25;55.92;100236.38;;;;-53
2019/08/17 02:29:15;;;;;;;1.89;1.70;;;;;;;22.25;55.91;100239.41;;;;-53
2019/08/17 02:32:15;;;;;;;1.70;1.60;;;;;;;22.25;55.94;100231.84;;;;-53
2019/08/17 02:35:15;;;;;;;2.41;1.73;;;;;;;22.25;55.96;100225.69;;;;-54
2019/08/17 02:38:15;;;;;;;1.70;1.60;;;;;;;22.25;55.97;100225.95;;;;-53
2019/08/17 02:41:15;;;;;;;2.00;1.71;;;;;;;22.25;55.93;100227.37;;;;-53
2019/08/17 02:44:15;;;;;;;1.58;1.48;;;;;;;22.24;55.98;100226.70;;;;-54
2019/08/17 02:47:17;;;;;;;1.72;1.62;;;;;;;22.24;56.02;100228.22;;;;-53
2019/08/17 02:50:15;;;;;;;1.81;1.65;;;;;;;22.24;55.99;100230.87;;;;-53
2019/08/17 02:53:15;;;;;;;2.73;1.65;;;;;;;22.23;55.99;100233.63;;;;-53
2019/08/17 02:56:15;;;;;;;1.79;1.69;;;;;;;22.24;55.98;100233.39;;;;-53
2019/08/17 02:59:15;;;;;;;2.33;1.58;;;;;;;22.24;55.93;100234.74;;;;-53
2019/08/17 03:02:15;;;;;;;1.71;1.51;;;;;;;22.24;55.98;100234.50;;;;-52
2019/08/17 03:05:15;;;;;;;1.92;1.82;;;;;;;22.24;55.94;100238.38;;;;-50
2019/08/17 03:08:15;;;;;;;2.13;1.82;;;;;;;22.23;55.98;100237.94;;;;-52
2019/08/17 03:11:15;;;;;;;2.15;1.80;;;;;;;22.23;55.97;100234.30;;;;-50
2019/08/17 03:14:15;;;;;;;2.25;1.67;;;;;;;22.22;55.99;100225.02;;;;-54
2019/08/17 03:17:15;;;;;;;1.73;1.60;;;;;;;22.22;55.96;100211.23;;;;-52
2019/08/17 03:20:15;;;;;;;1.87;1.69;;;;;;;22.22;55.97;100214.86;;;;-52
2019/08/17 03:23:15;;;;;;;1.70;1.60;;;;;;;22.21;55.95;100215.34;;;;-54
2019/08/17 03:26:15;;;;;;;2.37;1.79;;;;;;;22.22;55.98;100215.60;;;;-52
2019/08/17 03:29:15;;;;;;;1.79;1.61;;;;;;;22.21;55.94;100198.28;;;;-52
2019/08/17 03:32:15;;;;;;;1.68;1.58;;;;;;;22.21;55.97;100189.67;;;;-51
2019/08/17 03:35:15;;;;;;;2.03;1.69;;;;;;;22.21;55.98;100187.72;;;;-52
2019/08/17 03:38:15;;;;;;;1.87;1.69;;;;;;;22.21;55.94;100186.98;;;;-50
2019/08/17 03:41:15;;;;;;;1.73;1.59;;;;;;;22.20;56.02;100186.98;;;;-52
2019/08/17 03:44:15;;;;;;;1.97;1.71;;;;;;;22.20;56.01;100180.42;;;;-52
2019/08/17 03:47:15;;;;;;;2.03;1.68;;;;;;;22.20;56.03;100188.33;;;;-51
2019/08/17 03:50:15;;;;;;;1.75;1.65;;;;;;;22.20;55.98;100189.23;;;;-52
2019/08/17 03:53:15;;;;;;;1.77;1.67;;;;;;;22.20;56.00;100189.41;;;;-52
2019/08/17 03:56:15;;;;;;;1.88;1.67;;;;;;;22.20;56.04;100186.88;;;;-51
2019/08/17 03:59:15;;;;;;;1.95;1.64;;;;;;;22.20;56.02;100192.60;;;;-51
2019/08/17 04:02:15;;;;;;;2.09;1.65;;;;;;;22.20;55.98;100204.69;;;;-52
2019/08/17 04:05:15;;;;;;;1.87;1.58;;;;;;;22.20;56.03;100214.20;;;;-50
2019/08/17 04:08:15;;;;;;;1.61;1.50;;;;;;;22.20;56.01;100209.49;;;;-52
2019/08/17 04:11:15;;;;;;;1.76;1.66;;;;;;;22.19;55.97;100214.27;;;;-52
2019/08/17 04:14:15;;;;;;;1.73;1.63;;;;;;;22.20;55.99;100211.67;;;;-52
2019/08/17 04:17:15;;;;;;;2.87;1.75;;;;;;;22.19;56.00;100218.07;;;;-51
2019/08/17 04:20:15;;;;;;;1.65;1.55;;;;;;;22.19;56.02;100202.39;;;;-51
2019/08/17 04:23:15;;;;;;;2.09;1.59;;;;;;;22.18;56.05;100195.06;;;;-51
2019/08/17 04:26:15;;;;;;;1.92;1.70;;;;;;;22.18;56.00;100202.39;;;;-52
2019/08/17 04:29:15;;;;;;;2.13;1.69;;;;;;;22.18;56.03;100216.59;;;;-54
2019/08/17 04:32:15;;;;;;;1.67;1.53;;;;;;;22.18;56.03;100215.48;;;;-53
2019/08/17 04:35:15;;;;;;;1.71;1.57;;;;;;;22.19;56.04;100220.23;;;;-51
2019/08/17 04:38:15;;;;;;;1.81;1.71;;;;;;;22.18;55.99;100225.91;;;;-51
2019/08/17 04:41:15;;;;;;;7.14;2.31;;;;;;;22.14;55.62;100224.45;;;;-53
2019/08/17 04:44:15;;;;;;;6.01;2.35;;;;;;;22.11;55.71;100228.94;;;;-53
2019/08/17 04:47:15;;;;;;;5.20;2.27;;;;;;;22.08;55.78;100218.08;;;;-53
2019/08/17 04:50:15;;;;;;;3.04;2.05;;;;;;;22.08;55.74;100209.64;;;;-54
2019/08/17 04:53:15;;;;;;;3.17;2.25;;;;;;;22.07;55.74;100215.33;;;;-53
2019/08/17 04:56:15;;;;;;;4.01;2.69;;;;;;;22.03;55.03;100208.41;;;;-53
2019/08/17 04:59:15;;;;;;;5.16;2.92;;;;;;;21.95;54.89;100207.06;;;;-53
2019/08/17 05:02:15;;;;;;;5.67;3.14;;;;;;;21.92;54.97;100196.91;;;;-54
2019/08/17 05:05:15;;;;;;;4.69;3.14;;;;;;;21.88;54.72;100196.96;;;;-54
2019/08/17 05:08:15;;;;;;;4.37;2.80;;;;;;;21.82;54.86;100203.50;;;;-54
2019/08/17 05:11:15;;;;;;;5.56;3.26;;;;;;;21.80;54.88;100205.73;;;;-53
2019/08/17 05:14:15;;;;;;;4.41;3.07;;;;;;;21.73;54.99;100209.11;;;;-54
2019/08/17 05:17:15;;;;;;;4.17;3.06;;;;;;;21.72;55.06;100210.86;;;;-54
2019/08/17 05:20:15;;;;;;;4.77;3.19;;;;;;;21.67;55.29;100205.99;;;;-54
2019/08/17 05:23:14;;;;;;;5.97;3.29;;;;;;;21.67;55.21;100199.17;;;;-54
2019/08/17 05:26:15;;;;;;;6.40;3.14;;;;;;;21.60;55.35;100203.69;;;;-54
2019/08/17 05:29:15;;;;;;;4.85;3.01;;;;;;;21.62;55.38;100206.91;;;;-53
2019/08/17 05:32:15;;;;;;;5.44;3.09;;;;;;;21.61;55.55;100212.53;;;;-54
2019/08/17 05:35:15;;;;;;;4.70;3.24;;;;;;;21.60;55.59;100219.38;;;;-53
2019/08/17 05:38:15;;;;;;;7.19;3.27;;;;;;;21.59;55.90;100224.16;;;;-54
2019/08/17 05:41:15;;;;;;;7.32;3.30;;;;;;;21.57;56.83;100232.90;;;;-53
2019/08/17 05:44:15;;;;;;;5.93;3.17;;;;;;;21.52;57.73;100231.80;;;;-54
2019/08/17 05:47:15;;;;;;;7.61;3.37;;;;;;;21.50;57.81;100227.13;;;;-56
2019/08/17 05:50:15;;;;;;;5.54;3.22;;;;;;;21.56;57.41;100220.16;;;;-50
2019/08/17 05:53:15;;;;;;;7.46;3.15;;;;;;;21.61;57.19;100220.86;;;;-51
2019/08/17 05:56:15;;;;;;;4.81;3.15;;;;;;;21.69;57.13;100233.95;;;;-52
2019/08/17 05:59:15;;;;;;;5.05;3.01;;;;;;;21.74;56.84;100238.72;;;;-51
2019/08/17 06:02:15;;;;;;;4.56;3.06;;;;;;;21.78;56.61;100231.79;;;;-51
2019/08/17 06:05:15;;;;;;;4.93;2.87;;;;;;;21.81;56.41;100222.56;;;;-52
2019/08/17 06:08:15;;;;;;;5.86;3.09;;;;;;;21.83;56.28;100229.59;;;;-51
2019/08/17 06:11:15;;;;;;;6.05;2.83;;;;;;;21.86;56.21;100230.42;;;;-50
2019/08/17 06:14:15;;;;;;;5.56;3.01;;;;;;;21.88;56.03;100227.73;;;;-51
2019/08/17 06:17:15;;;;;;;7.38;3.07;;;;;;;21.90;55.95;100239.56;;;;-51
2019/08/17 06:23:15;;;;;;;3.89;2.85;;;;;;;21.94;55.82;100242.78;;;;-50
2019/08/17 06:26:15;;;;;;;5.86;2.92;;;;;;;21.93;56.02;100255.09;;;;-54
2019/08/17 06:29:15;;;;;;;5.25;2.89;;;;;;;21.93;56.14;100252.70;;;;-54
2019/08/17 06:32:15;;;;;;;4.42;2.81;;;;;;;21.93;56.20;100255.22;;;;-54
2019/08/17 06:35:15;;;;;;;4.90;2.72;;;;;;;21.94;56.12;100263.46;;;;-54
2019/08/17 06:38:15;;;;;;;4.30;2.74;;;;;;;21.94;56.20;100273.75;;;;-51
2019/08/17 06:41:15;;;;;;;4.13;2.73;;;;;;;21.94;56.18;100278.02;;;;-51
2019/08/17 06:44:15;;;;;;;5.79;2.65;;;;;;;21.94;56.19;100273.65;;;;-52
2019/08/17 06:47:15;;;;;;;3.03;2.54;;;;;;;21.94;56.22;100277.11;;;;-51
2019/08/17 06:50:15;;;;;;;3.81;2.86;;;;;;;21.94;56.17;100274.09;;;;-51
2019/08/17 06:53:15;;;;;;;4.69;2.91;;;;;;;21.94;56.15;100273.75;;;;-53
2019/08/17 06:56:15;;;;;;;3.71;2.78;;;;;;;21.95;56.20;100276.20;;;;-53
2019/08/17 06:59:15;;;;;;;3.72;2.69;;;;;;;21.95;56.19;100273.17;;;;-51
2019/08/17 07:02:15;;;;;;;3.40;2.50;;;;;;;21.95;56.18;100272.80;;;;-50
2019/08/17 07:05:15;;;;;;;3.68;2.71;;;;;;;21.95;56.16;100275.16;;;;-51
2019/08/17 07:08:15;;;;;;;3.78;2.59;;;;;;;21.95;56.16;100268.88;;;;-51
2019/08/17 07:11:15;;;;;;;3.83;2.72;;;;;;;21.95;56.13;100276.14;;;;-51
2019/08/17 07:14:15;;;;;;;3.15;2.52;;;;;;;21.96;56.17;100288.58;;;;-51
2019/08/17 07:17:15;;;;;;;4.17;2.77;;;;;;;21.96;56.14;100288.81;;;;-51
2019/08/17 07:20:15;;;;;;;3.71;2.71;;;;;;;21.96;56.08;100295.06;;;;-51
2019/08/17 07:23:16;;;;;;;2.96;2.53;;;;;;;21.96;56.13;100294.80;;;;-51
2019/08/17 07:26:15;;;;;;;2.95;2.55;;;;;;;21.97;56.11;100297.02;;;;-51
2019/08/17 07:29:15;;;;;;;2.80;2.43;;;;;;;21.97;56.15;100302.13;;;;-50
2019/08/17 07:32:15;;;;;;;3.29;2.35;;;;;;;21.96;56.16;100299.00;;;;-51
2019/08/17 07:35:15;;;;;;;3.73;2.63;;;;;;;21.96;56.12;100303.81;;;;-51
2019/08/17 07:38:15;;;;;;;3.36;2.61;;;;;;;21.96;56.18;100311.14;;;;-51
2019/08/17 07:41:15;;;;;;;3.42;2.71;;;;;;;21.97;56.17;100307.17;;;;-51
2019/08/17 07:44:15;;;;;;;2.75;2.47;;;;;;;21.97;56.20;100305.49;;;;-51
2019/08/17 07:47:15;;;;;;;2.94;2.36;;;;;;;21.96;56.19;100307.78;;;;-51
2019/08/17 07:50:15;;;;;;;3.13;2.53;;;;;;;21.96;56.15;100307.27;;;;-51
2019/08/17 07:53:15;;;;;;;2.67;2.20;;;;;;;21.96;56.17;100300.69;;;;-51
2019/08/17 07:56:15;;;;;;;2.68;2.36;;;;;;;21.96;56.14;100295.91;;;;-51
2019/08/17 07:59:15;;;;;;;3.01;2.26;;;;;;;21.96;56.19;100295.41;;;;-54
2019/08/17 08:02:15;;;;;;;3.43;2.41;;;;;;;21.96;56.20;100290.33;;;;-53
2019/08/17 08:05:15;;;;;;;2.48;2.28;;;;;;;21.96;56.23;100295.23;;;;-54
2019/08/17 08:08:15;;;;;;;3.20;2.56;;;;;;;21.96;56.15;100282.59;;;;-53
2019/08/17 08:11:15;;;;;;;3.13;2.58;;;;;;;21.96;56.24;100269.64;;;;-54
2019/08/17 08:14:15;;;;;;;2.59;2.28;;;;;;;21.97;56.15;100259.19;;;;-54
2019/08/17 08:17:15;;;;;;;2.42;2.22;;;;;;;21.96;56.19;100248.45;;;;-53
2019/08/17 08:20:15;;;;;;;2.63;2.43;;;;;;;21.96;56.22;100244.95;;;;-53
2019/08/17 08:23:15;;;;;;;3.15;2.42;;;;;;;21.96;56.17;100232.34;;;;-53
2019/08/17 08:26:15;;;;;;;3.21;2.41;;;;;;;21.96;56.19;100248.42;;;;-51
2019/08/17 08:29:15;;;;;;;2.98;2.41;;;;;;;21.96;56.21;100251.08;;;;-51
2019/08/17 08:32:15;;;;;;;2.59;2.35;;;;;;;21.97;56.18;100266.91;;;;-54
2019/08/17 08:35:15;;;;;;;2.45;2.21;;;;;;;21.98;56.14;100269.64;;;;-51
2019/08/17 08:38:15;;;;;;;2.38;2.18;;;;;;;21.98;56.22;100273.74;;;;-50
2019/08/17 08:41:15;;;;;;;3.10;2.30;;;;;;;21.96;56.25;100277.48;;;;-52
2019/08/17 08:44:15;;;;;;;2.53;2.33;;;;;;;21.96;56.49;100276.57;;;;-51
2019/08/17 08:47:15;;;;;;;3.39;2.50;;;;;;;21.97;56.51;100275.42;;;;-51
2019/08/17 08:50:15;;;;;;;5.56;2.44;;;;;;;21.97;56.48;100275.86;;;;-54
2019/08/17 08:53:15;;;;;;;2.70;2.33;;;;;;;21.98;56.33;100288.30;;;;-50
2019/08/17 08:56:15;;;;;;;3.05;2.46;;;;;;;21.98;56.30;100292.20;;;;-54
2019/08/17 08:59:15;;;;;;;3.09;2.27;;;;;;;22.00;56.35;100300.31;;;;-53
2019/08/17 09:02:15;;;;;;;4.61;2.43;;;;;;;22.02;56.46;100294.98;;;;-53
2019/08/17 09:05:15;;;;;;;2.99;2.15;;;;;;;22.05;56.47;100303.33;;;;-54
2019/08/17 09:08:15;;;;;;;4.11;2.45;;;;;;;22.08;56.51;100303.34;;;;-54
2019/08/17 09:11:15;;;;;;;4.15;2.17;;;;;;;22.11;56.48;100303.27;;;;-54
2019/08/17 09:14:15;;;;;;;4.59;2.46;;;;;;;22.13;56.47;100301.12;;;;-51
2019/08/17 09:17:15;;;;;;;5.06;2.27;;;;;;;22.15;56.46;100302.22;;;;-52
2019/08/17 09:20:15;;;;;;;3.43;2.37;;;;;;;22.17;56.45;100309.08;;;;-49
2019/08/17 09:23:15;;;;;;;3.96;2.31;;;;;;;22.20;56.44;100318.39;;;;-49
2019/08/17 09:26:15;;;;;;;3.73;2.31;;;;;;;22.21;56.49;100319.53;;;;-52
2019/08/17 09:29:15;;;;;;;2.73;2.20;;;;;;;22.23;56.48;100314.48;;;;-50
2019/08/17 09:32:15;;;;;;;4.67;2.30;;;;;;;22.25;56.59;100306.70;;;;-51
2019/08/17 09:35:15;;;;;;;2.68;2.10;;;;;;;22.26;56.45;100300.95;;;;-50
2019/08/17 09:38:15;;;;;;;4.04;2.32;;;;;;;22.27;56.48;100294.81;;;;-51
2019/08/17 09:41:15;;;;;;;4.24;2.30;;;;;;;22.28;56.37;100298.28;;;;-50
2019/08/17 09:44:15;;;;;;;2.84;2.09;;;;;;;22.27;56.58;100296.16;;;;-50
2019/08/17 09:47:15;;;;;;;5.12;2.30;;;;;;;22.28;56.51;100303.94;;;;-51
2019/08/17 09:50:15;;;;;;;3.37;2.16;;;;;;;22.29;56.56;100301.78;;;;-50
2019/08/17 09:53:15;;;;;;;3.75;2.40;;;;;;;22.31;56.58;100299.55;;;;-57
2019/08/17 09:56:15;;;;;;;3.81;2.19;;;;;;;22.32;56.61;100296.22;;;;-57
2019/08/17 09:59:15;;;;;;;4.43;2.31;;;;;;;22.33;56.55;100292.48;;;;-56
2019/08/17 10:02:15;;;;;;;4.20;2.31;;;;;;;22.36;56.47;100284.19;;;;-52
2019/08/17 10:05:15;;;;;;;4.09;2.19;;;;;;;22.37;56.53;100283.72;;;;-51
2019/08/17 10:08:15;;;;;;;4.59;2.38;;;;;;;22.39;56.67;100279.30;;;;-51
2019/08/17 10:11:15;;;;;;;3.91;2.20;;;;;;;22.40;56.83;100272.87;;;;-50
2019/08/17 10:14:15;;;;;;;7.33;2.61;;;;;;;22.41;56.81;100287.70;;;;-55
2019/08/17 10:17:15;;;;;;;4.82;2.49;;;;;;;22.43;56.85;100299.95;;;;-52
2019/08/17 10:20:15;;;;;;;6.89;2.45;;;;;;;22.44;56.84;100289.20;;;;-52
2019/08/17 10:23:15;;;;;;;6.17;2.40;;;;;;;22.45;56.83;100275.88;;;;-51
2019/08/17 10:26:15;;;;;;;6.91;2.61;;;;;;;22.45;56.83;100269.95;;;;-52
2019/08/17 10:29:15;;;;;;;4.62;2.49;;;;;;;22.46;56.74;100256.05;;;;-51
2019/08/17 10:32:15;;;;;;;4.97;2.50;;;;;;;22.47;56.83;100242.00;;;;-51
2019/08/17 10:35:15;;;;;;;5.77;2.35;;;;;;;22.49;56.66;100240.02;;;;-50
2019/08/17 10:38:15;;;;;;;5.29;2.38;;;;;;;22.50;56.68;100242.36;;;;-51
2019/08/17 10:41:15;;;;;;;3.16;2.22;;;;;;;22.51;56.60;100251.81;;;;-52
2019/08/17 10:44:15;;;;;;;7.30;2.44;;;;;;;22.51;56.63;100240.20;;;;-52
2019/08/17 10:47:15;;;;;;;3.37;2.38;;;;;;;22.52;56.60;100236.83;;;;-50
2019/08/17 10:50:15;;;;;;;4.41;2.21;;;;;;;22.52;56.60;100236.36;;;;-51
2019/08/17 10:53:15;;;;;;;7.95;2.21;;;;;;;22.53;56.48;100231.34;;;;-51
2019/08/17 10:56:15;;;;;;;3.59;2.18;;;;;;;22.54;56.50;100222.59;;;;-49
2019/08/17 10:59:15;;;;;;;9.72;2.64;;;;;;;22.55;56.58;100217.39;;;;-50
2019/08/17 11:02:15;;;;;;;6.76;2.59;;;;;;;22.56;56.60;100220.52;;;;-48
2019/08/17 11:05:15;;;;;;;6.98;2.46;;;;;;;22.56;56.67;100222.81;;;;-51
2019/08/17 11:08:15;;;;;;;7.79;2.51;;;;;;;22.58;56.83;100220.51;;;;-51
2019/08/17 11:11:15;;;;;;;7.13;2.52;;;;;;;22.57;56.75;100223.34;;;;-52
2019/08/17 11:14:15;;;;;;;5.70;2.41;;;;;;;22.59;56.71;100223.13;;;;-56
2019/08/17 11:17:15;;;;;;;6.43;2.39;;;;;;;22.59;56.64;100206.23;;;;-54
2019/08/17 11:20:15;;;;;;;7.13;2.47;;;;;;;22.58;56.73;100212.26;;;;-55
2019/08/17 11:23:15;;;;;;;5.82;2.46;;;;;;;22.59;56.74;100217.67;;;;-52
2019/08/17 11:26:15;;;;;;;6.35;2.47;;;;;;;22.61;56.61;100223.05;;;;-53
2019/08/17 11:29:15;;;;;;;4.23;2.61;;;;;;;22.61;56.67;100222.44;;;;-53
2019/08/17 11:32:15;;;;;;;5.83;2.49;;;;;;;22.62;56.71;100217.09;;;;-52
2019/08/17 11:35:15;;;;;;;5.34;2.21;;;;;;;22.64;56.62;100220.23;;;;-53
2019/08/17 11:38:15;;;;;;;5.01;2.51;;;;;;;22.65;56.58;100214.71;;;;-57
2019/08/17 11:41:15;;;;;;;6.13;2.40;;;;;;;22.65;56.57;100212.02;;;;-57
2019/08/17 11:44:15;;;;;;;3.20;2.31;;;;;;;22.65;56.59;100211.85;;;;-57
2019/08/17 11:47:15;;;;;;;5.15;2.19;;;;;;;22.64;56.50;100216.80;;;;-55
2019/08/17 11:50:15;;;;;;;5.00;2.40;;;;;;;22.63;56.58;100228.62;;;;-55
2019/08/17 11:53:15;;;;;;;4.44;2.60;;;;;;;22.63;56.61;100224.52;;;;-55
2019/08/17 11:56:15;;;;;;;4.79;2.33;;;;;;;22.60;56.50;100220.16;;;;-55
2019/08/17 11:59:15;;;;;;;5.87;2.23;;;;;;;22.61;56.52;100224.20;;;;-55
2019/08/17 12:02:15;;;;;;;4.39;2.41;;;;;;;22.60;56.44;100217.44;;;;-55
2019/08/17 12:05:15;;;;;;;4.54;2.39;;;;;;;22.59;56.47;100210.94;;;;-54
2019/08/17 12:08:15;;;;;;;5.87;2.40;;;;;;;22.59;56.34;100202.80;;;;-55
2019/08/17 12:11:15;;;;;;;3.84;2.42;;;;;;;22.58;56.40;100207.82;;;;-55
2019/08/17 12:14:15;;;;;;;3.55;2.39;;;;;;;22.58;56.34;100199.41;;;;-55
2019/08/17 12:17:15;;;;;;;3.63;2.39;;;;;;;22.58;56.33;100189.44;;;;-55
2019/08/17 12:20:15;;;;;;;5.69;2.31;;;;;;;22.58;56.23;100185.27;;;;-55
2019/08/17 12:23:15;;;;;;;4.76;2.43;;;;;;;22.58;56.22;100178.16;;;;-55
2019/08/17 12:26:15;;;;;;;4.13;2.35;;;;;;;22.57;56.25;100172.52;;;;-55
2019/08/17 12:29:15;;;;;;;4.55;2.20;;;;;;;22.56;56.22;100178.38;;;;-55
2019/08/17 12:32:15;;;;;;;4.19;2.21;;;;;;;22.55;56.23;100170.77;;;;-52
2019/08/17 12:35:15;;;;;;;3.41;2.17;;;;;;;22.55;56.20;100170.94;;;;-52
2019/08/17 12:38:15;;;;;;;4.03;2.39;;;;;;;22.55;56.22;100170.77;;;;-52
2019/08/17 12:41:15;;;;;;;4.55;2.25;;;;;;;22.55;56.14;100175.66;;;;-52
2019/08/17 12:44:15;;;;;;;4.49;2.33;;;;;;;22.54;56.10;100182.36;;;;-52
2019/08/17 12:47:15;;;;;;;3.07;2.07;;;;;;;22.55;56.17;100177.17;;;;-52
2019/08/17 12:50:14;;;;;;;3.69;2.21;;;;;;;22.54;56.18;100172.33;;;;-52
2019/08/17 12:53:15;;;;;;;3.73;2.39;;;;;;;22.54;56.10;100171.83;;;;-52
2019/08/17 12:56:15;;;;;;;4.32;2.37;;;;;;;22.54;56.08;100173.54;;;;-51
2019/08/17 12:59:15;;;;;;;3.38;2.01;;;;;;;22.54;56.10;100173.10;;;;-52
2019/08/17 13:02:15;;;;;;;2.73;2.13;;;;;;;22.54;56.11;100168.22;;;;-52
2019/08/17 13:05:15;;;;;;;5.23;2.23;;;;;;;22.54;56.08;100162.23;;;;-50
2019/08/17 13:08:15;;;;;;;3.08;2.21;;;;;;;22.55;56.12;100162.19;;;;-51
2019/08/17 13:11:15;;;;;;;2.20;1.97;;;;;;;22.56;56.15;100155.99;;;;-51
2019/08/17 13:14:15;;;;;;;2.75;2.08;;;;;;;22.58;56.11;100157.97;;;;-51
2019/08/17 13:17:15;;;;;;;2.91;2.10;;;;;;;22.59;56.15;100161.70;;;;-51
2019/08/17 13:20:16;;;;;;;2.73;2.16;;;;;;;22.59;56.18;100156.00;;;;-52
2019/08/17 13:23:15;;;;;;;3.91;2.41;;;;;;;22.60;56.27;100154.25;;;;-52
2019/08/17 13:26:15;;;;;;;2.58;2.10;;;;;;;22.63;56.28;100160.55;;;;-54
2019/08/17 13:29:15;;;;;;;4.09;2.14;;;;;;;22.64;56.28;100158.91;;;;-50
2019/08/17 13:32:15;;;;;;;3.73;2.19;;;;;;;22.65;56.32;100155.39;;;;-51
2019/08/17 13:35:15;;;;;;;3.85;2.06;;;;;;;22.66;56.34;100161.64;;;;-52
2019/08/17 13:38:15;;;;;;;3.74;2.04;;;;;;;22.67;56.27;100164.87;;;;-51
2019/08/17 13:41:15;;;;;;;3.58;2.22;;;;;;;22.69;56.28;100162.91;;;;-51
2019/08/17 13:44:15;;;;;;;3.74;2.08;;;;;;;22.67;56.30;100160.66;;;;-53
2019/08/17 13:47:15;;;;;;;3.32;2.01;;;;;;;22.69;56.35;100157.75;;;;-54
2019/08/17 13:50:15;;;;;;;3.59;1.99;;;;;;;22.69;56.40;100159.70;;;;-53
2019/08/17 13:53:15;;;;;;;3.90;2.26;;;;;;;22.70;56.43;100162.33;;;;-57
2019/08/17 13:56:15;;;;;;;4.39;2.27;;;;;;;22.71;56.33;100165.72;;;;-60
2019/08/17 13:59:15;;;;;;;2.84;2.11;;;;;;;22.72;56.42;100169.35;;;;-54
2019/08/17 14:02:15;;;;;;;4.76;2.22;;;;;;;22.71;56.25;100173.23;;;;-55
2019/08/17 14:05:15;;;;;;;7.68;2.19;;;;;;;22.71;56.44;100174.91;;;;-55
2019/08/17 14:08:15;;;;;;;4.05;2.31;;;;;;;22.72;56.40;100174.16;;;;-51
2019/08/17 14:11:15;;;;;;;4.07;2.25;;;;;;;22.72;56.37;100173.42;;;;-51
2019/08/17 14:14:15;;;;;;;3.40;2.22;;;;;;;22.73;56.40;100176.91;;;;-50
2019/08/17 14:17:15;;;;;;;2.77;2.01;;;;;;;22.74;56.38;100184.48;;;;-51
2019/08/17 14:20:14;;;;;;;4.77;2.09;;;;;;;22.75;56.42;100190.81;;;;-50
2019/08/17 14:23:15;;;;;;;6.11;2.04;;;;;;;22.75;56.37;100195.02;;;;-51
2019/08/17 14:26:15;;;;;;;3.99;2.20;;;;;;;22.76;56.43;100196.26;;;;-56
2019/08/17 14:29:15;;;;;;;4.77;2.19;;;;;;;22.77;56.37;100199.55;;;;-52
2019/08/17 14:32:15;;;;;;;3.06;2.07;;;;;;;22.77;56.40;100198.98;;;;-53
2019/08/17 14:35:15;;;;;;;5.34;2.07;;;;;;;22.78;56.37;100202.54;;;;-54
2019/08/17 14:38:15;;;;;;;7.72;2.22;;;;;;;22.78;56.47;100205.64;;;;-55
2019/08/17 14:41:15;;;;;;;3.63;2.19;;;;;;;22.77;56.40;100210.59;;;;-56
2019/08/17 14:44:15;;;;;;;6.39;2.20;;;;;;;22.75;56.48;100206.42;;;;-57
2019/08/17 14:47:15;;;;;;;4.91;1.95;;;;;;;22.76;56.48;100211.91;;;;-55
2019/08/17 14:50:14;;;;;;;12.61;2.19;;;;;;;22.77;56.51;100208.47;;;;-53
2019/08/17 14:53:15;;;;;;;3.97;2.03;;;;;;;22.78;56.44;100212.27;;;;-56
2019/08/17 14:56:15;;;;;;;4.61;2.25;;;;;;;22.76;56.42;100211.84;;;;-58
2019/08/17 14:59:15;;;;;;;5.02;2.12;;;;;;;22.76;56.47;100208.95;;;;-57
2019/08/17 15:02:15;;;;;;;4.18;2.07;;;;;;;22.76;56.39;100203.33;;;;-58
2019/08/17 15:05:15;;;;;;;4.79;1.97;;;;;;;22.74;56.40;100200.84;;;;-58
2019/08/17 15:08:15;;;;;;;5.55;2.28;;;;;;;22.74;56.34;100201.59;;;;-58
2019/08/17 15:11:15;;;;;;;3.21;2.07;;;;;;;22.74;56.32;100199.80;;;;-58
2019/08/17 15:14:15;;;;;;;3.49;2.05;;;;;;;22.73;56.34;100190.05;;;;-56
2019/08/17 15:17:15;;;;;;;4.05;2.03;;;;;;;22.73;56.31;100179.07;;;;-58
2019/08/17 15:20:15;;;;;;;4.00;2.13;;;;;;;22.72;56.24;100172.84;;;;-57
2019/08/17 15:23:15;;;;;;;2.49;2.01;;;;;;;22.73;56.24;100173.42;;;;-58
2019/08/17 15:26:15;;;;;;;2.01;1.81;;;;;;;22.72;56.22;100172.55;;;;-56
2019/08/17 15:29:15;;;;;;;2.96;1.93;;;;;;;22.72;56.23;100174.91;;;;-58
2019/08/17 15:32:15;;;;;;;3.09;2.10;;;;;;;22.71;56.18;100174.50;;;;-50
2019/08/17 15:35:15;;;;;;;4.15;2.07;;;;;;;22.71;56.17;100176.22;;;;-50
2019/08/17 15:38:14;;;;;;;9.41;2.34;;;;;;;22.70;56.27;100179.02;;;;-51
2019/08/17 15:41:14;;;;;;;6.60;2.02;;;;;;;22.73;56.27;100181.26;;;;-49
2019/08/17 15:44:15;;;;;;;7.57;2.17;;;;;;;22.75;56.27;100191.08;;;;-50
2019/08/17 15:47:15;;;;;;;6.27;2.20;;;;;;;22.72;56.25;100190.25;;;;-52
2019/08/17 15:50:15;;;;;;;6.01;2.19;;;;;;;22.73;56.41;100191.02;;;;-51
2019/08/17 15:53:15;;;;;;;3.73;2.05;;;;;;;22.74;56.34;100199.37;;;;-51
2019/08/17 15:56:15;;;;;;;8.19;2.35;;;;;;;22.74;56.33;100205.73;;;;-51
2019/08/17 15:59:15;;;;;;;6.08;2.19;;;;;;;22.75;56.34;100212.63;;;;-51
2019/08/17 16:02:15;;;;;;;10.79;2.37;;;;;;;22.75;56.31;100220.27;;;;-51
2019/08/17 16:05:15;;;;;;;6.61;2.07;;;;;;;22.76;56.40;100221.31;;;;-51
2019/08/17 16:08:15;;;;;;;4.98;2.26;;;;;;;22.75;56.40;100222.16;;;;-51
2019/08/17 16:11:15;;;;;;;8.09;2.59;;;;;;;22.75;56.40;100221.24;;;;-52
2019/08/17 16:14:14;;;;;;;12.39;2.62;;;;;;;22.76;56.44;100225.86;;;;-49
2019/08/17 16:17:14;;;;;;;9.83;2.43;;;;;;;22.78;56.51;100236.02;;;;-50
2019/08/17 16:20:15;;;;;;;7.88;2.30;;;;;;;22.79;56.55;100234.96;;;;-48
2019/08/17 16:23:15;;;;;;;12.94;2.51;;;;;;;22.80;56.55;100230.95;;;;-51
2019/08/17 16:26:15;;;;;;;10.07;2.39;;;;;;;22.81;56.55;100228.95;;;;-50
2019/08/17 16:29:15;;;;;;;8.58;2.50;;;;;;;22.82;56.56;100228.04;;;;-50
2019/08/17 16:32:15;;;;;;;8.85;2.37;;;;;;;22.83;56.59;100220.16;;;;-50
2019/08/17 16:35:15;;;;;;;7.29;2.36;;;;;;;22.83;56.56;100221.87;;;;-48
2019/08/17 16:38:15;;;;;;;6.47;2.39;;;;;;;22.85;56.59;100214.92;;;;-58
2019/08/17 16:41:15;;;;;;;5.09;2.11;;;;;;;22.84;56.50;100206.58;;;;-56
2019/08/17 16:44:15;;;;;;;6.47;2.21;;;;;;;22.85;56.56;100208.78;;;;-57
2019/08/17 16:47:15;;;;;;;4.97;2.15;;;;;;;22.85;56.66;100213.84;;;;-53